If you wish to contribute or participate in the discussions about articles you are invited to join SKYbrary as a registered user

 Actions

Bellingham International Airport

From SKYbrary Wiki

KBLI
Airport
ICAO: KBLI
Summary
Name Bellingham International Airport
Region North America
Territory United States US.gif
Location Bellingham, Washington
Serving
Coordinates 48° 47' 44.05" N, 122° 32' 14.89" W
Runways
Designator Length Width Surface ROPS
16/34 2042 m6,699.475 ft
46 m150.919 ft
ASP yes/yes


METAR
Observation KBLI 221353Z 00000KT 10SM BKN050 04/03 A2994 RMK AO2 SLP147 T00440033
Station Bellingham, Bellingham International Airport
Date/Time 22 March 2019 13:53:00
Wind direction
Wind speed 00 kts
Lowest cloud amount broken clouds
Temperature 4.4°C
Dew point 3.3°C
Humidity 92%
QNH hPa
Weather condition n/a

Bellingham International Airport

ICAO: KBLI IATA: BLI

Description

Bellingham International Airport is a public use airport located 5 km2.7 nm
5,000 m
16,404.199 ft
northwest of Bellingham, in Whatcom County, Washington.

Climatology

Dry-summer subtropical ”Mediterranean" climate (Köppen climate classification Csb) - characterized by warm, dry summers and mild winters.

Maps

Terrain

Loading map...

Airport Layout

Loading map...


Accidents & Serious Incidents at or in vicinity of KBLI

None on SKYbrary